This is the latest recevied weather packets stored in our database for station/object S54MI-13. If no packets are shown the sender has not sent any weather packets the latest 10 day(s).
| Time | Temp. | Humidity | Pressure | Rain* | Wind** | Luminosity | Snow |
|---|---|---|---|---|---|---|---|
| 1777355074 | 15° C | 53% | - | - | - | 158 W/m² | - |
| 1777350755 | 14.44° C | 51% | - | - | - | 2 W/m² | - |
| 1777347857 | 14.44° C | 50% | - | - | - | 0 W/m² | - |
| 1777335621 | 15.56° C | 44% | - | - | - | 0 W/m² | - |
| 1777334906 | 15.56° C | 43% | - | - | - | 0 W/m² | - |
| 1777332022 | 16.11° C | 42% | - | - | - | 0 W/m² | - |
| 1777326983 | 16.11° C | 41% | - | - | - | 0 W/m² | - |
| 1777321253 | 16.11° C | 39% | - | - | - | 0 W/m² | - |
| 1777319792 | 16.11° C | 40% | - | - | - | 0 W/m² | - |
| 1777309005 | 20° C | 40% | - | - | - | 228 W/m² | - |
| 1777301062 | 24.44° C | 33% | - | - | - | 599 W/m² | - |
| 1777299632 | 25° C | 33% | - | - | - | 677 W/m² | - |
| 1777298192 | 23.89° C | 33% | - | - | - | 744 W/m² | - |
| 1777293139 | 22.78° C | 34% | - | - | - | 881 W/m² | - |
| 1777290976 | 22.78° C | 35% | - | - | - | 900 W/m² | - |
| 1777283065 | 22.78° C | 39% | - | - | - | 830 W/m² | - |
| 1777282338 | 22.78° C | 39% | - | - | - | 780 W/m² | - |
| 1777280190 | 21.67° C | 41% | - | - | - | 717 W/m² | - |
| 1777277296 | 21.11° C | 46% | - | - | - | 562 W/m² | - |
| 1777275141 | 17.78° C | 48% | - | - | - | 486 W/m² | - |
| 1777274430 | 16.67° C | 48% | - | - | - | 486 W/m² | - |
| 1777270100 | 13.89° C | 47% | - | - | - | 192 W/m² | - |
| 1777264347 | 12.78° C | 43% | - | - | - | 1 W/m² | - |
| 1777261476 | 12.78° C | 44% | - | - | - | 0 W/m² | - |
| 1777259307 | 12.78° C | 45% | - | - | - | 0 W/m² | - |
* Rain since midnight (hover to see other rain measurements)
** Current wind speed in m/s (hover to see current wind gust speed)